Time;durP1;ratioP1;P1;durP2;ratioP2;P2;SDS_P1;SDS_P2;PMS_P1;PMS_P2;Temp;Humidity;BMP_temperature;BMP_pressure;BME280_temperature;BME280_humidity;BME280_pressure;Samples;Min_cycle;Max_cycle;Signal;HPM_P1;HPM_P2
2023/07/10 00:01:43;;;;;;;9.13;7.05;;;21.70;76.20;;;;;;4975881;28;20041;-86
2023/07/10 00:04:19;;;;;;;11.75;7.50;;;21.80;76.20;;;;;;4961912;28;20042;-87
2023/07/10 00:06:46;;;;;;;10.73;7.40;;;21.80;76.10;;;;;;4999176;28;20035;-86
2023/07/10 00:09:12;;;;;;;10.77;7.57;;;21.80;76.20;;;;;;5008121;28;20492;-87
2023/07/10 00:11:40;;;;;;;10.50;7.03;;;21.80;76.00;;;;;;4984289;28;20128;-86
2023/07/10 00:14:15;;;;;;;9.93;7.25;;;21.90;75.90;;;;;;4961173;28;20125;-84
2023/07/10 00:16:41;;;;;;;8.98;6.88;;;21.90;75.70;;;;;;4978856;28;20078;-86
2023/07/10 00:19:14;;;;;;;9.45;7.03;;;21.90;75.30;;;;;;4961614;28;20034;-86
2023/07/10 00:21:40;;;;;;;11.30;7.72;;;21.90;75.30;;;;;;4988882;28;20508;-87
2023/07/10 00:24:07;;;;;;;8.43;7.57;;;21.90;74.70;;;;;;4977585;28;20391;-85
2023/07/10 00:26:33;;;;;;;10.80;7.78;;;21.80;74.80;;;;;;4992054;28;20174;-87
2023/07/10 00:29:05;;;;;;;10.25;7.43;;;21.80;75.20;;;;;;4961888;28;20121;-86
2023/07/10 00:31:34;;;;;;;11.13;7.20;;;21.80;75.40;;;;;;4993229;28;20018;-87
2023/07/10 00:34:01;;;;;;;9.27;6.90;;;21.80;75.50;;;;;;4989213;28;20069;-86
2023/07/10 00:36:38;;;;;;;14.73;7.05;;;21.90;75.80;;;;;;4970787;28;20035;-86
2023/07/10 00:39:32;;;;;;;10.93;7.15;;;21.90;76.00;;;;;;4978746;28;20377;-86
2023/07/10 00:42:02;;;;;;;8.05;6.63;;;22.00;75.60;;;;;;4986159;28;20066;-86
2023/07/10 00:44:36;;;;;;;11.07;7.07;;;22.00;75.40;;;;;;4976207;28;20062;-86
2023/07/10 00:47:20;;;;;;;11.38;7.05;;;22.00;76.00;;;;;;4975701;28;20046;-88
2023/07/10 00:49:52;;;;;;;11.10;7.20;;;21.80;76.20;;;;;;4972474;28;20383;-86
2023/07/10 00:52:27;;;;;;;9.10;7.03;;;21.80;76.30;;;;;;5003304;28;20033;-87
2023/07/10 00:54:57;;;;;;;11.95;7.43;;;21.70;76.90;;;;;;4963165;28;20498;-87
2023/07/10 00:57:33;;;;;;;9.15;6.93;;;21.60;76.40;;;;;;4968020;28;20504;-86
2023/07/10 01:00:19;;;;;;;10.05;6.55;;;21.60;76.20;;;;;;4986775;28;20027;-86
2023/07/10 01:02:46;;;;;;;10.38;7.50;;;21.50;76.90;;;;;;4981997;28;20421;-86
2023/07/10 01:05:32;;;;;;;8.18;6.97;;;21.50;76.40;;;;;;4977037;28;20049;-85
2023/07/10 01:07:59;;;;;;;10.05;7.07;;;21.50;76.60;;;;;;4980794;28;20034;-86
2023/07/10 01:10:25;;;;;;;12.60;7.35;;;21.40;76.90;;;;;;4969568;28;20027;-86
2023/07/10 01:12:51;;;;;;;16.00;6.82;;;21.40;77.40;;;;;;4977168;28;20038;-86
2023/07/10 01:15:18;;;;;;;9.63;7.50;;;21.40;76.80;;;;;;4956138;28;20595;-85
2023/07/10 01:17:46;;;;;;;9.88;7.35;;;21.30;76.30;;;;;;4968982;28;20097;-86
2023/07/10 01:20:35;;;;;;;8.88;7.15;;;21.20;76.40;;;;;;4971548;28;20030;-88
2023/07/10 01:23:03;;;;;;;10.98;7.53;;;21.20;77.10;;;;;;4974031;28;20031;-86
2023/07/10 01:25:45;;;;;;;9.85;7.05;;;21.10;77.30;;;;;;4985178;28;20039;-85
2023/07/10 01:28:16;;;;;;;10.45;7.25;;;21.00;77.00;;;;;;4970076;28;20058;-85
2023/07/10 01:31:05;;;;;;;11.43;7.57;;;20.90;77.40;;;;;;4987784;28;20046;-87
2023/07/10 01:33:39;;;;;;;10.65;7.55;;;20.90;77.50;;;;;;4972574;28;20038;-86
2023/07/10 01:36:08;;;;;;;10.15;7.93;;;20.90;77.70;;;;;;5015681;28;20053;-87
2023/07/10 01:38:46;;;;;;;9.38;7.60;;;20.80;77.60;;;;;;4937122;28;20270;-85
2023/07/10 01:41:32;;;;;;;10.82;8.07;;;20.70;78.50;;;;;;4991983;28;20385;-85
2023/07/10 01:43:58;;;;;;;11.73;7.57;;;20.70;78.50;;;;;;4996397;28;20031;-86
2023/07/10 01:46:27;;;;;;;10.98;7.25;;;20.70;78.50;;;;;;4947515;28;20493;-86
2023/07/10 01:48:57;;;;;;;11.30;7.32;;;20.70;78.50;;;;;;4990964;28;20026;-87
2023/07/10 01:51:23;;;;;;;11.05;7.80;;;20.60;79.40;;;;;;4966979;28;20042;-87
2023/07/10 01:53:50;;;;;;;9.88;7.32;;;20.50;78.90;;;;;;4966200;28;20447;-87
2023/07/10 01:56:18;;;;;;;9.82;7.63;;;20.40;78.90;;;;;;4991398;28;20080;-87
2023/07/10 01:58:44;;;;;;;9.82;7.85;;;20.40;79.00;;;;;;4979723;28;20125;-87
2023/07/10 02:01:10;;;;;;;13.38;7.97;;;20.30;79.50;;;;;;4980173;28;20046;-87
2023/07/10 02:03:36;;;;;;;12.52;7.90;;;20.20;79.60;;;;;;4945087;28;20034;-87
2023/07/10 02:06:03;;;;;;;9.80;7.70;;;20.20;80.10;;;;;;4957200;28;20042;-86
2023/07/10 02:08:29;;;;;;;10.95;8.48;;;20.20;79.90;;;;;;4971901;28;20056;-87
2023/07/10 02:10:56;;;;;;;10.98;8.65;;;20.20;80.70;;;;;;4962539;28;20515;-87
2023/07/10 02:13:26;;;;;;;11.52;8.25;;;20.10;80.10;;;;;;4972372;28;20378;-86
2023/07/10 02:15:54;;;;;;;17.70;7.80;;;20.20;80.70;;;;;;4956257;28;20132;-87
2023/07/10 02:18:20;;;;;;;12.95;8.18;;;20.20;80.20;;;;;;4992204;28;20033;-87
2023/07/10 02:20:46;;;;;;;9.98;7.53;;;20.20;80.30;;;;;;4961123;28;20034;-87
2023/07/10 02:23:11;;;;;;;10.02;8.10;;;20.20;80.60;;;;;;4958002;28;20111;-88
2023/07/10 02:25:38;;;;;;;10.52;7.95;;;20.30;80.40;;;;;;4958447;28;20085;-87
2023/07/10 02:28:05;;;;;;;12.27;7.93;;;20.20;80.10;;;;;;4984804;28;20038;-88
2023/07/10 02:30:31;;;;;;;11.75;7.45;;;20.10;81.50;;;;;;4979531;28;20142;-88
2023/07/10 02:32:57;;;;;;;11.23;7.82;;;20.00;81.10;;;;;;4957140;28;20096;-86
2023/07/10 02:35:22;;;;;;;10.93;7.85;;;20.00;80.90;;;;;;4973261;28;20034;-87
2023/07/10 02:37:48;;;;;;;11.50;8.10;;;20.00;81.20;;;;;;4966398;28;20128;-87
2023/07/10 02:40:14;;;;;;;12.75;8.10;;;20.00;80.70;;;;;;4956377;28;20039;-87
2023/07/10 02:42:40;;;;;;;10.48;8.10;;;20.00;81.10;;;;;;4982185;28;20038;-87
2023/07/10 02:45:06;;;;;;;11.27;8.23;;;20.00;81.50;;;;;;4966998;28;20053;-87
2023/07/10 02:47:32;;;;;;;10.85;8.23;;;20.00;81.40;;;;;;4988053;28;20507;-87
2023/07/10 02:49:57;;;;;;;10.15;8.07;;;19.90;81.10;;;;;;4998928;28;20033;-87
2023/07/10 02:52:23;;;;;;;10.18;7.55;;;19.90;81.20;;;;;;4964334;28;20030;-86
2023/07/10 02:54:49;;;;;;;9.63;7.80;;;19.90;81.50;;;;;;4993390;28;20030;-88
2023/07/10 02:57:15;;;;;;;11.23;7.80;;;19.90;81.70;;;;;;4980256;28;20128;-87
2023/07/10 02:59:41;;;;;;;10.40;7.68;;;19.90;81.60;;;;;;4985259;28;20040;-87
2023/07/10 03:02:06;;;;;;;10.77;7.93;;;19.80;81.40;;;;;;4973330;28;20128;-88
2023/07/10 03:04:32;;;;;;;10.75;7.80;;;19.90;81.30;;;;;;4979611;28;20420;-86
2023/07/10 03:06:58;;;;;;;10.25;7.40;;;19.90;81.10;;;;;;4957627;28;20110;-87
2023/07/10 03:09:24;;;;;;;10.35;8.10;;;19.90;81.90;;;;;;4971184;28;20031;-87
2023/07/10 03:11:50;;;;;;;11.30;7.60;;;19.90;81.80;;;;;;4938724;28;20066;-86
2023/07/10 03:14:15;;;;;;;11.63;7.90;;;19.80;82.30;;;;;;4973013;28;20093;-87
2023/07/10 03:16:41;;;;;;;10.18;8.55;;;19.80;82.40;;;;;;4950176;28;20035;-87
2023/07/10 03:19:07;;;;;;;12.32;8.07;;;19.80;82.80;;;;;;4973274;28;20035;-87
2023/07/10 03:21:33;;;;;;;9.93;7.43;;;19.80;83.20;;;;;;4971856;28;20023;-86
2023/07/10 03:24:00;;;;;;;11.00;7.95;;;19.80;83.20;;;;;;4951078;28;20453;-87
2023/07/10 03:26:26;;;;;;;12.25;8.52;;;19.70;82.80;;;;;;4964952;28;20072;-88
2023/07/10 03:29:12;;;;;;;11.93;8.18;;;19.60;83.20;;;;;;4984559;28;20042;-88
2023/07/10 03:31:38;;;;;;;11.40;8.20;;;19.60;84.70;;;;;;4975631;28;20022;-88
2023/07/10 03:34:04;;;;;;;8.98;7.50;;;19.50;83.50;;;;;;4985241;28;20409;-88
2023/07/10 03:36:30;;;;;;;15.40;8.55;;;19.60;82.90;;;;;;4968193;28;20034;-87
2023/07/10 03:38:56;;;;;;;10.18;7.97;;;19.70;81.20;;;;;;4987897;28;20549;-87
2023/07/10 03:41:22;;;;;;;10.02;7.68;;;19.80;80.40;;;;;;4974671;28;20038;-88
2023/07/10 03:43:48;;;;;;;11.55;7.78;;;19.90;80.90;;;;;;4981206;28;20034;-88
2023/07/10 03:46:15;;;;;;;10.45;7.13;;;19.90;80.50;;;;;;4987534;28;20026;-89
2023/07/10 03:48:42;;;;;;;12.90;8.27;;;19.90;80.90;;;;;;4973273;28;20030;-88
2023/07/10 03:51:08;;;;;;;9.65;8.57;;;20.00;80.30;;;;;;4981027;28;20429;-87
2023/07/10 03:53:34;;;;;;;12.13;8.25;;;20.00;81.70;;;;;;4960432;28;20050;-88
2023/07/10 03:56:00;;;;;;;14.13;8.27;;;20.10;82.30;;;;;;4959093;28;20034;-89
2023/07/10 03:58:28;;;;;;;10.70;8.52;;;20.10;81.60;;;;;;4965788;28;20035;-89
2023/07/10 04:00:57;;;;;;;9.25;8.00;;;20.00;81.20;;;;;;5004199;28;20046;-88
2023/07/10 04:03:25;;;;;;;10.90;7.53;;;19.90;80.80;;;;;;4995326;28;20069;-88
2023/07/10 04:05:52;;;;;;;9.93;8.02;;;20.00;81.20;;;;;;4987790;28;20519;-88
2023/07/10 04:08:22;;;;;;;8.98;6.70;;;20.00;80.70;;;;;;4968407;28;20037;-87
2023/07/10 04:10:52;;;;;;;10.82;7.00;;;20.10;81.10;;;;;;4974593;28;20069;-87
2023/07/10 04:13:18;;;;;;;9.05;7.03;;;20.20;81.10;;;;;;4991963;28;20041;-88
2023/07/10 04:16:02;;;;;;;8.48;6.35;;;20.30;80.40;;;;;;5000421;28;20117;-87
2023/07/10 04:18:33;;;;;;;10.10;6.90;;;20.40;82.20;;;;;;4995712;28;20046;-87
2023/07/10 04:21:00;;;;;;;9.50;7.30;;;20.50;84.50;;;;;;4974823;28;20045;-87
2023/07/10 04:23:26;;;;;;;8.48;6.43;;;20.50;83.40;;;;;;4972464;28;20462;-86
2023/07/10 04:25:52;;;;;;;6.93;6.22;;;20.50;82.60;;;;;;4973793;28;20109;-86
2023/07/10 04:28:18;;;;;;;8.65;6.53;;;20.50;84.00;;;;;;4988410;28;20038;-87
2023/07/10 04:30:46;;;;;;;7.43;6.57;;;20.60;84.60;;;;;;4959978;28;20537;-85
2023/07/10 04:33:14;;;;;;;9.15;6.70;;;20.60;84.70;;;;;;4978144;28;20468;-86
2023/07/10 04:35:40;;;;;;;8.88;7.05;;;20.60;84.60;;;;;;4978383;28;20030;-88
2023/07/10 04:38:07;;;;;;;8.50;7.43;;;20.60;84.40;;;;;;4954175;28;20054;-88
2023/07/10 04:40:33;;;;;;;13.82;8.10;;;20.70;84.20;;;;;;4961155;28;20485;-86
2023/07/10 04:43:00;;;;;;;7.95;7.15;;;20.50;82.80;;;;;;4965930;28;20440;-86
2023/07/10 04:45:26;;;;;;;8.63;7.30;;;20.50;83.30;;;;;;4973599;28;20061;-87
2023/07/10 04:47:52;;;;;;;10.43;7.97;;;20.60;84.60;;;;;;4975882;28;20069;-86
2023/07/10 04:50:17;;;;;;;9.20;7.47;;;20.60;84.10;;;;;;4981130;28;20030;-87
2023/07/10 04:52:43;;;;;;;10.32;7.38;;;20.60;84.90;;;;;;4974807;28;20025;-88
2023/07/10 04:55:09;;;;;;;13.88;8.45;;;20.60;84.40;;;;;;4973925;28;20424;-88
2023/07/10 04:57:34;;;;;;;10.77;8.52;;;20.70;82.50;;;;;;4969928;28;20038;-88
2023/07/10 05:00:00;;;;;;;11.85;8.45;;;20.70;80.20;;;;;;4982352;28;20037;-88
2023/07/10 05:02:26;;;;;;;13.70;8.68;;;20.80;79.30;;;;;;4975701;28;20476;-87
2023/07/10 05:04:51;;;;;;;10.15;8.15;;;20.80;78.90;;;;;;4964328;28;20034;-87
2023/07/10 05:07:17;;;;;;;8.98;7.85;;;20.90;79.20;;;;;;4971121;28;20044;-86
2023/07/10 05:09:43;;;;;;;10.23;7.68;;;21.00;79.50;;;;;;4956627;28;20487;-88
2023/07/10 05:12:09;;;;;;;12.73;9.20;;;21.00;78.60;;;;;;4977928;28;20038;-87
2023/07/10 05:14:34;;;;;;;9.43;8.23;;;21.10;77.60;;;;;;4969132;28;20034;-88
2023/07/10 05:17:00;;;;;;;12.25;8.30;;;21.20;77.20;;;;;;5000674;28;20034;-87
2023/07/10 05:19:26;;;;;;;12.82;8.27;;;21.30;77.50;;;;;;4969400;28;20031;-87
2023/07/10 05:21:52;;;;;;;9.90;8.10;;;21.40;78.80;;;;;;4972590;28;20038;-87
2023/07/10 05:24:18;;;;;;;10.13;8.27;;;21.50;77.70;;;;;;4958303;28;20034;-87
2023/07/10 05:26:44;;;;;;;9.63;7.47;;;21.70;77.70;;;;;;4974783;28;20168;-87
2023/07/10 05:29:09;;;;;;;9.63;7.70;;;21.80;77.90;;;;;;4972100;28;20126;-86
2023/07/10 05:31:35;;;;;;;7.30;6.55;;;21.90;78.90;;;;;;4958879;28;20459;-85
2023/07/10 05:34:01;;;;;;;8.98;7.47;;;22.00;80.50;;;;;;4975745;28;20029;-88
2023/07/10 05:36:27;;;;;;;8.52;7.68;;;22.10;80.40;;;;;;4954368;28;20034;-87
2023/07/10 05:38:53;;;;;;;9.57;7.30;;;22.20;81.80;;;;;;4956502;28;20212;-87
2023/07/10 05:41:20;;;;;;;10.25;7.13;;;22.20;83.10;;;;;;4959019;28;20038;-88
2023/07/10 05:43:46;;;;;;;8.55;7.10;;;22.10;81.50;;;;;;4974945;28;20044;-85
2023/07/10 05:46:12;;;;;;;8.38;7.55;;;22.10;82.70;;;;;;4995396;28;20033;-87
2023/07/10 05:48:38;;;;;;;11.50;7.80;;;22.10;84.20;;;;;;4986987;28;20015;-86
2023/07/10 05:51:05;;;;;;;9.95;7.88;;;22.10;83.10;;;;;;4969610;28;20030;-87
2023/07/10 05:53:33;;;;;;;11.60;9.27;;;22.00;80.70;;;;;;4978238;28;20062;-86
2023/07/10 05:56:00;;;;;;;10.77;8.73;;;22.00;81.20;;;;;;4981316;28;20129;-87
2023/07/10 05:58:28;;;;;;;14.63;9.35;;;22.00;78.60;;;;;;4979947;28;20030;-86
2023/07/10 06:00:57;;;;;;;11.52;8.68;;;21.90;79.00;;;;;;4973369;28;20034;-86
2023/07/10 06:03:24;;;;;;;11.98;8.93;;;22.10;81.60;;;;;;4989607;28;20555;-87
2023/07/10 06:06:02;;;;;;;9.30;8.13;;;22.40;82.20;;;;;;4988477;28;20026;-87
2023/07/10 06:08:29;;;;;;;9.70;7.75;;;22.80;82.50;;;;;;4984903;28;20483;-87
2023/07/10 06:10:55;;;;;;;10.85;7.55;;;23.30;80.90;;;;;;4991316;28;20092;-86
2023/07/10 06:13:20;;;;;;;11.68;7.68;;;23.80;79.40;;;;;;4977620;28;20517;-86
2023/07/10 06:15:49;;;;;;;10.30;7.53;;;24.20;78.30;;;;;;4986534;28;20026;-86
2023/07/10 06:18:16;;;;;;;15.60;7.90;;;24.70;76.30;;;;;;4990770;28;20053;-86
2023/07/10 06:20:42;;;;;;;11.68;7.53;;;24.90;70.40;;;;;;4957425;28;20126;-86
2023/07/10 06:23:07;;;;;;;13.70;7.22;;;25.00;69.70;;;;;;4955191;28;20130;-86
2023/07/10 06:25:33;;;;;;;8.35;6.82;;;25.10;71.20;;;;;;4986529;28;20034;-86
2023/07/10 06:27:59;;;;;;;15.40;7.32;;;25.40;68.60;;;;;;4974594;28;20046;-87
2023/07/10 06:30:25;;;;;;;15.82;11.95;;;25.70;69.20;;;;;;4980975;28;20038;-86
2023/07/10 06:32:51;;;;;;;13.27;8.77;;;26.00;69.90;;;;;;4987826;28;20092;-86
2023/07/10 06:35:17;;;;;;;24.80;19.08;;;26.30;68.30;;;;;;4997427;28;20493;-86
2023/07/10 06:37:45;;;;;;;13.20;7.57;;;26.60;66.60;;;;;;4985334;28;20035;-87
2023/07/10 06:40:14;;;;;;;10.50;6.60;;;26.70;65.50;;;;;;4978466;28;20414;-85
2023/07/10 06:42:41;;;;;;;13.15;6.28;;;27.00;66.10;;;;;;4988283;28;20038;-87
2023/07/10 06:45:12;;;;;;;17.83;7.38;;;27.40;66.30;;;;;;4979530;28;20046;-87
2023/07/10 06:47:41;;;;;;;10.48;6.35;;;27.80;62.90;;;;;;4963454;28;20513;-88
2023/07/10 06:50:09;;;;;;;9.48;6.57;;;28.00;60.90;;;;;;4983230;28;20045;-87
2023/07/10 06:52:38;;;;;;;9.82;7.15;;;28.30;59.90;;;;;;5014531;28;20053;-87
2023/07/10 06:55:04;;;;;;;9.00;6.32;;;28.70;60.10;;;;;;5000316;28;20113;-88
2023/07/10 06:57:30;;;;;;;8.48;5.30;;;29.00;60.30;;;;;;4960400;28;20505;-85
2023/07/10 06:59:56;;;;;;;6.88;4.82;;;29.50;61.50;;;;;;4954006;28;20089;-85
2023/07/10 07:02:21;;;;;;;7.03;5.05;;;29.80;57.40;;;;;;4985747;28;20512;-86
2023/07/10 07:04:47;;;;;;;10.77;4.88;;;30.10;58.40;;;;;;4957850;28;20113;-87
2023/07/10 07:07:13;;;;;;;9.30;4.85;;;30.20;53.00;;;;;;4972554;28;20027;-85
2023/07/10 07:09:38;;;;;;;8.02;4.97;;;30.40;56.00;;;;;;4957560;28;20030;-85
2023/07/10 07:12:05;;;;;;;6.10;5.20;;;30.60;54.40;;;;;;4969944;28;20034;-86
2023/07/10 07:14:31;;;;;;;5.38;4.25;;;30.80;55.10;;;;;;4980968;28;20113;-85
2023/07/10 07:16:57;;;;;;;6.80;4.65;;;30.90;55.00;;;;;;4963168;28;20803;-85
2023/07/10 07:19:22;;;;;;;7.00;5.00;;;31.20;54.30;;;;;;4990845;28;20026;-86
2023/07/10 07:21:48;;;;;;;7.43;4.97;;;31.30;53.90;;;;;;4960447;28;20050;-85
2023/07/10 07:24:14;;;;;;;5.97;4.60;;;31.20;55.00;;;;;;4987865;28;20038;-84
2023/07/10 07:26:39;;;;;;;5.60;5.00;;;31.30;55.00;;;;;;4981274;28;20250;-85
2023/07/10 07:29:05;;;;;;;11.93;5.30;;;31.40;56.00;;;;;;4958179;28;20042;-87
2023/07/10 07:31:33;;;;;;;6.43;4.88;;;31.60;53.50;;;;;;4977330;28;20030;-86
2023/07/10 07:33:58;;;;;;;6.95;4.88;;;31.60;54.30;;;;;;4965003;28;20398;-86
2023/07/10 07:36:25;;;;;;;7.97;5.28;;;31.70;56.20;;;;;;4977055;28;20092;-85
2023/07/10 07:38:50;;;;;;;7.13;5.15;;;31.80;54.30;;;;;;4961126;28;20034;-85
2023/07/10 07:41:16;;;;;;;7.95;5.85;;;31.70;54.70;;;;;;4977807;28;20165;-86
2023/07/10 07:43:42;;;;;;;8.00;5.45;;;31.60;54.20;;;;;;4973389;28;20115;-86
2023/07/10 07:46:07;;;;;;;8.00;5.28;;;31.10;52.60;;;;;;4992465;28;20065;-86
2023/07/10 07:48:33;;;;;;;10.35;5.68;;;31.00;54.40;;;;;;4959413;28;20121;-88
2023/07/10 07:51:04;;;;;;;10.32;6.35;;;31.00;55.20;;;;;;4957566;28;20039;-86
2023/07/10 07:53:33;;;;;;;6.93;5.18;;;31.00;54.50;;;;;;4997669;28;20056;-87
2023/07/10 07:55:59;;;;;;;8.00;5.30;;;31.10;55.00;;;;;;4991309;28;20026;-87
2023/07/10 07:58:25;;;;;;;6.90;5.50;;;31.00;54.60;;;;;;4960017;28;20058;-84
2023/07/10 08:00:51;;;;;;;6.65;4.82;;;31.30;54.20;;;;;;4989101;28;20497;-86
2023/07/10 08:03:17;;;;;;;7.07;4.93;;;31.60;53.60;;;;;;4960628;28;20030;-87
2023/07/10 08:05:44;;;;;;;11.07;5.63;;;31.90;55.80;;;;;;4984829;28;20026;-87
2023/07/10 08:08:13;;;;;;;7.00;5.38;;;32.20;54.10;;;;;;4960335;28;20045;-86
2023/07/10 08:10:46;;;;;;;6.32;5.50;;;32.50;52.20;;;;;;4991307;28;20109;-88
2023/07/10 08:13:13;;;;;;;10.05;5.63;;;32.70;52.30;;;;;;4992805;28;20085;-87
2023/07/10 08:15:39;;;;;;;7.95;5.20;;;32.90;53.50;;;;;;4974999;28;20117;-87
2023/07/10 08:18:05;;;;;;;6.15;4.90;;;33.20;53.30;;;;;;4985799;28;20038;-86
2023/07/10 08:20:31;;;;;;;5.82;4.68;;;33.20;53.60;;;;;;4973567;28;20034;-87
2023/07/10 08:22:58;;;;;;;7.53;5.10;;;33.00;54.40;;;;;;4958951;28;20496;-88
2023/07/10 08:25:24;;;;;;;5.35;4.75;;;32.80;54.80;;;;;;4992573;28;20050;-84
2023/07/10 08:27:49;;;;;;;7.15;5.00;;;32.70;54.60;;;;;;4993977;28;20066;-87
2023/07/10 08:30:16;;;;;;;9.38;4.80;;;32.80;52.90;;;;;;4992379;28;20061;-88
2023/07/10 08:32:41;;;;;;;6.75;4.70;;;32.80;51.00;;;;;;4960121;28;20037;-87
2023/07/10 08:35:08;;;;;;;8.65;5.30;;;32.70;52.80;;;;;;4976372;28;20031;-88
2023/07/10 08:37:36;;;;;;;8.25;5.00;;;32.60;52.90;;;;;;4992358;28;20042;-89
2023/07/10 08:40:06;;;;;;;8.27;4.97;;;32.40;55.00;;;;;;4960386;28;20042;-88
2023/07/10 08:42:32;;;;;;;7.22;5.28;;;32.10;55.30;;;;;;4992265;28;20034;-89
2023/07/10 08:45:01;;;;;;;7.50;4.90;;;31.80;56.70;;;;;;4959995;28;20089;-87
2023/07/10 08:47:44;;;;;;;6.68;4.25;;;31.40;57.00;;;;;;4964548;28;20046;-85
2023/07/10 08:50:22;;;;;;;8.70;4.65;;;31.00;56.90;;;;;;4991578;28;20070;-87
2023/07/10 08:52:53;;;;;;;5.82;4.32;;;30.90;58.90;;;;;;4994320;28;20161;-85
2023/07/10 08:55:56;;;;;;;6.63;4.60;;;30.80;57.60;;;;;;4990529;28;20030;-86
2023/07/10 08:58:33;;;;;;;4.45;3.72;;;30.70;59.10;;;;;;4983325;28;20034;-89
2023/07/10 09:01:02;;;;;;;8.02;4.30;;;30.60;60.30;;;;;;4975831;28;20035;-88
2023/07/10 09:03:41;;;;;;;6.25;4.10;;;30.50;59.60;;;;;;4995277;28;20038;-87
2023/07/10 09:06:18;;;;;;;6.20;4.18;;;30.50;58.40;;;;;;4977006;28;20080;-89
2023/07/10 09:08:48;;;;;;;5.78;4.40;;;30.30;59.10;;;;;;4983869;28;20508;-87
2023/07/10 09:11:14;;;;;;;5.65;4.40;;;30.00;60.70;;;;;;4984498;28;20097;-88
2023/07/10 09:13:46;;;;;;;6.82;4.03;;;29.90;59.90;;;;;;4993102;28;20122;-87
2023/07/10 09:16:20;;;;;;;5.88;4.03;;;29.80;60.30;;;;;;4981829;28;20034;-87
2023/07/10 09:18:56;;;;;;;7.43;4.13;;;29.70;63.40;;;;;;4998313;28;20504;-87
2023/07/10 09:21:28;;;;;;;4.28;3.45;;;29.70;61.50;;;;;;4998015;28;20556;-87
2023/07/10 09:23:55;;;;;;;5.65;4.20;;;29.70;62.90;;;;;;5010546;28;20042;-88
2023/07/10 09:26:27;;;;;;;7.75;4.15;;;29.70;62.00;;;;;;4969463;28;20031;-87
2023/07/10 09:29:11;;;;;;;6.25;4.45;;;29.70;62.10;;;;;;4960397;28;20061;-86
2023/07/10 09:31:53;;;;;;;6.40;4.60;;;29.80;62.30;;;;;;4984117;28;20057;-87
2023/07/10 09:34:27;;;;;;;9.13;4.82;;;29.90;62.20;;;;;;4977172;28;20036;-88
2023/07/10 09:36:55;;;;;;;5.50;4.28;;;30.00;61.70;;;;;;4977636;28;20405;-87
2023/07/10 09:39:28;;;;;;;9.05;5.32;;;30.10;61.90;;;;;;4991301;28;20026;-87
2023/07/10 09:41:58;;;;;;;6.20;5.05;;;30.00;58.10;;;;;;4971343;28;20030;-87
2023/07/10 09:44:45;;;;;;;6.68;4.68;;;30.00;60.00;;;;;;4986858;28;20392;-86
2023/07/10 09:47:13;;;;;;;8.65;5.55;;;29.90;61.20;;;;;;4968281;28;20409;-87
2023/07/10 09:49:53;;;;;;;9.13;5.22;;;29.90;61.50;;;;;;4978058;28;20061;-89
2023/07/10 09:52:23;;;;;;;10.50;6.00;;;29.90;60.40;;;;;;4997674;28;20026;-87
2023/07/10 09:54:57;;;;;;;10.82;5.32;;;29.90;61.20;;;;;;5006637;28;20041;-87
2023/07/10 09:57:23;;;;;;;12.25;5.18;;;29.90;61.50;;;;;;4983853;28;20045;-87
2023/07/10 09:59:52;;;;;;;9.05;4.60;;;30.00;60.20;;;;;;4992862;28;20042;-87
2023/07/10 10:02:34;;;;;;;4.88;4.25;;;30.10;58.30;;;;;;4976809;28;20492;-87
2023/07/10 10:05:04;;;;;;;7.88;4.63;;;30.20;61.10;;;;;;4991689;28;20034;-88
2023/07/10 10:07:37;;;;;;;5.30;4.32;;;30.20;60.50;;;;;;4992615;28;20054;-87
2023/07/10 10:10:16;;;;;;;7.60;4.95;;;30.20;58.80;;;;;;5010261;28;20100;-86
2023/07/10 10:12:44;;;;;;;6.15;4.63;;;30.30;57.40;;;;;;4971798;28;20027;-88
2023/07/10 10:15:37;;;;;;;4.90;4.43;;;30.40;57.00;;;;;;4964912;28;20049;-87
2023/07/10 10:18:06;;;;;;;5.38;4.07;;;30.30;57.50;;;;;;4979052;28;20038;-88
2023/07/10 10:20:35;;;;;;;7.30;4.00;;;30.40;60.10;;;;;;4990947;28;20385;-87
2023/07/10 10:23:01;;;;;;;5.55;3.95;;;30.40;58.90;;;;;;4966526;28;20073;-87
2023/07/10 10:25:35;;;;;;;5.97;4.00;;;30.50;58.80;;;;;;4971425;28;20061;-86
2023/07/10 10:28:16;;;;;;;5.50;3.80;;;30.60;58.20;;;;;;4987811;28;20641;-88
2023/07/10 10:30:54;;;;;;;5.82;3.42;;;30.60;58.90;;;;;;4992053;28;20089;-87
2023/07/10 10:33:35;;;;;;;4.47;3.42;;;30.60;57.30;;;;;;4980699;28;20018;-87
2023/07/10 10:36:13;;;;;;;4.53;3.58;;;30.50;56.50;;;;;;4982990;28;20453;-87
2023/07/10 10:39:12;;;;;;;5.43;3.70;;;30.50;58.10;;;;;;4973334;28;20475;-89
2023/07/10 10:41:41;;;;;;;9.68;3.88;;;30.50;57.80;;;;;;4965472;28;20037;-89
2023/07/10 10:44:34;;;;;;;3.60;3.00;;;30.60;57.40;;;;;;4987830;28;20031;-88
2023/07/10 10:47:15;;;;;;;3.83;3.35;;;30.60;57.70;;;;;;5002433;28;20030;-89
2023/07/10 10:49:55;;;;;;;8.23;3.78;;;30.70;58.10;;;;;;4972691;28;20031;-88
2023/07/10 10:52:48;;;;;;;8.68;3.42;;;30.70;56.10;;;;;;4988590;28;20033;-87
2023/07/10 10:55:51;;;;;;;4.30;3.17;;;30.70;57.50;;;;;;4987437;28;20105;-89
2023/07/10 10:58:33;;;;;;;6.10;3.03;;;30.80;56.60;;;;;;4994616;28;20065;-89
2023/07/10 11:01:18;;;;;;;7.53;4.00;;;30.80;54.90;;;;;;4991001;28;20030;-89
2023/07/10 11:04:25;;;;;;;6.35;2.97;;;30.80;57.30;;;;;;4985355;28;20031;-89
2023/07/10 11:06:57;;;;;;;6.20;3.10;;;30.80;53.20;;;;;;4992942;28;20447;-88
2023/07/10 11:09:30;;;;;;;5.30;3.10;;;30.90;55.50;;;;;;5002176;28;20548;-87
2023/07/10 11:11:58;;;;;;;6.13;3.10;;;30.80;54.10;;;;;;4970855;28;20756;-88
2023/07/10 11:14:24;;;;;;;4.03;2.83;;;30.70;56.40;;;;;;4974767;28;20050;-87
2023/07/10 11:16:51;;;;;;;5.40;3.17;;;30.60;55.10;;;;;;4993935;28;20025;-87
2023/07/10 11:19:23;;;;;;;3.13;2.80;;;30.50;56.00;;;;;;4941521;28;20054;-88
2023/07/10 11:21:50;;;;;;;6.50;3.05;;;30.60;56.60;;;;;;4990539;28;20560;-87
2023/07/10 11:24:36;;;;;;;5.40;3.47;;;30.60;54.50;;;;;;4976538;28;20420;-86
2023/07/10 11:27:20;;;;;;;5.60;2.88;;;30.60;54.30;;;;;;4966006;28;20409;-87
2023/07/10 11:29:54;;;;;;;5.72;2.90;;;30.70;54.20;;;;;;4992790;28;20041;-88
2023/07/10 11:32:25;;;;;;;5.60;2.70;;;30.70;52.40;;;;;;4988102;28;20027;-87
2023/07/10 11:34:54;;;;;;;4.40;2.88;;;30.80;54.00;;;;;;4990293;28;20050;-87
2023/07/10 11:38:02;;;;;;;4.53;2.90;;;30.80;53.60;;;;;;4987263;28;20031;-88
2023/07/10 11:40:27;;;;;;;3.75;2.88;;;31.00;53.60;;;;;;4987697;28;20050;-87
2023/07/10 11:43:25;;;;;;;6.45;3.58;;;31.10;54.80;;;;;;4989081;28;20477;-88
2023/07/10 11:45:53;;;;;;;6.43;3.47;;;31.20;54.60;;;;;;5003435;28;20649;-88
2023/07/10 11:48:56;;;;;;;3.45;2.90;;;31.40;54.80;;;;;;4976557;28;20666;-90
2023/07/10 11:51:28;;;;;;;6.35;3.45;;;31.50;54.00;;;;;;4966318;28;20045;-88
2023/07/10 11:54:12;;;;;;;4.25;3.63;;;31.60;54.20;;;;;;4971596;28;20117;-89
2023/07/10 11:56:58;;;;;;;10.23;4.10;;;31.70;53.40;;;;;;4976742;28;20035;-88
2023/07/10 11:59:25;;;;;;;4.63;4.15;;;31.80;51.50;;;;;;4948174;28;20027;-89
2023/07/10 12:01:52;;;;;;;4.97;3.80;;;31.70;54.50;;;;;;4953636;28;20073;-89
2023/07/10 12:04:18;;;;;;;6.40;3.78;;;31.70;55.30;;;;;;4948171;28;20055;-88
2023/07/10 12:06:45;;;;;;;4.47;4.07;;;31.90;53.40;;;;;;4957333;28;20068;-89
2023/07/10 12:09:12;;;;;;;6.32;4.47;;;31.90;54.00;;;;;;4963868;28;20082;-89
2023/07/10 12:11:39;;;;;;;5.05;3.97;;;31.80;53.30;;;;;;4951686;28;20023;-87
2023/07/10 12:14:09;;;;;;;6.78;4.35;;;31.80;53.90;;;;;;4959347;28;20102;-88
2023/07/10 12:16:42;;;;;;;5.30;3.80;;;31.60;54.00;;;;;;4950029;28;20122;-90
2023/07/10 12:19:16;;;;;;;6.25;4.05;;;31.50;54.50;;;;;;4953282;28;20036;-88
2023/07/10 12:21:43;;;;;;;4.97;4.03;;;31.50;54.40;;;;;;4942015;29;20039;-89
2023/07/10 12:24:14;;;;;;;6.18;3.67;;;31.50;51.00;;;;;;4951458;28;20219;-89
2023/07/10 12:26:40;;;;;;;4.65;3.90;;;31.60;51.80;;;;;;4937565;29;20137;-87
2023/07/10 12:29:12;;;;;;;4.95;3.47;;;31.60;54.00;;;;;;4935979;29;20044;-87
2023/07/10 12:31:40;;;;;;;4.32;3.55;;;31.70;52.60;;;;;;4957657;28;20690;-89
2023/07/10 12:34:13;;;;;;;5.47;3.97;;;31.60;50.60;;;;;;4952874;28;20027;-87
2023/07/10 12:36:39;;;;;;;4.28;3.72;;;31.50;52.70;;;;;;4953768;28;20035;-89
2023/07/10 12:39:09;;;;;;;5.22;4.03;;;31.30;52.20;;;;;;4953891;29;20182;-89
2023/07/10 12:41:41;;;;;;;4.63;3.55;;;31.10;50.80;;;;;;4952762;28;20035;-87
2023/07/10 12:44:16;;;;;;;5.70;3.40;;;31.00;52.40;;;;;;4952915;28;20182;-87
2023/07/10 12:46:42;;;;;;;6.65;4.15;;;31.10;52.70;;;;;;4938125;29;20172;-86
2023/07/10 12:49:14;;;;;;;6.70;4.35;;;31.20;53.00;;;;;;4937115;29;20051;-89
2023/07/10 12:52:00;;;;;;;5.63;4.07;;;31.30;53.10;;;;;;4953058;29;20093;-87
2023/07/10 12:54:46;;;;;;;6.88;4.63;;;31.50;52.80;;;;;;4937320;29;20103;-88
2023/07/10 12:57:20;;;;;;;4.70;4.20;;;31.60;51.60;;;;;;4921769;29;20122;-87
2023/07/10 12:59:48;;;;;;;5.90;4.43;;;31.80;51.60;;;;;;4936794;28;20035;-87